Flight Track Log - Related Links

Times and Time Zones

All times are in EDT time to prevent confusion due to time zone crossing. See the N830QS flight status page for this flight to view local times or setup timezone preferences in your user account.


Time Position Orientation Groundspeed Altitude Reporting Facility
EDT Latitude Longitude Course Direction KTS MPH feet Rate Location/Type
Fri 03:05:00 PM 40.2464 -111.9367 187° South  Level FlightAware Approximate
Fri 03:06:00 PM 40.1543 -111.9500 180° South  Level FlightAware Approximate
Fri 03:07:00 PM 40.0638 -111.9667 180° South  Level FlightAware Approximate
Fri 03:08:00 PM 39.9714 -111.9779 186° South  Level FlightAware Approximate
Fri 03:09:00 PM 39.8795 -111.9902 194° South  Level FlightAware Approximate
Fri 03:09:17 PM 40.5206 -111.4492 186° South 211 243 10,100  Level Salt Lake Center
Fri 03:10:00 PM 39.7880 -112.0089 186° South  Level FlightAware Approximate
Fri 03:10:19 PM 40.6036 -111.4297 10° North 251 289 14,100  Level Salt Lake Center
Fri 03:11:00 PM 39.6956 -112.0198 184° South  Level FlightAware Approximate
Fri 03:11:21 PM 40.6400 -111.3397 62° Northeast 319 367 15,100  Level Salt Lake Center
Fri 03:12:00 PM 39.6029 -112.0275 184° South  Level FlightAware Approximate
Fri 03:12:23 PM 40.5689 -111.2842 149° Southeast 311 358 15,000  Level Salt Lake Center
Fri 03:13:00 PM 39.5107 -112.0390 191° South  Level FlightAware Approximate
Fri 03:13:25 PM 40.4800 -111.2611 169° South 321 369 15,000  Level Salt Lake Center
Fri 03:14:00 PM 39.4189 -112.0560 186° South  Level FlightAware Approximate
Fri 03:14:27 PM 40.3892 -111.2417 171° South 328 377 16,900  Level Salt Lake Center
Fri 03:15:28 PM 40.2953 -111.2303 175° South 334 384 19,300 1,512 Climbing Salt Lake Center
Fri 03:16:30 PM 40.1825 -111.2603 191° South 343 395 20,000 339 Climbing Salt Lake Center
Fri 03:17:32 PM 40.0847 -111.2931 194° South 366 421 20,000  Level Salt Lake Center
Fri 03:18:34 PM 39.9817 -111.3178 190° South 348 400 20,000  Level Salt Lake Center
Fri 03:19:36 PM 39.8911 -111.3400 191° South 346 398 20,000 871 Level Salt Lake Center
Fri 03:20:38 PM 39.8003 -111.3625 191° South 347 399 21,800 1,839 Climbing Salt Lake Center
Fri 03:21:40 PM 39.7064 -111.3858 191° South 343 395 23,800 2,129 Climbing Salt Lake Center
Fri 03:22:42 PM 39.5931 -111.4131 190° South 344 396 26,200 2,129 Climbing Salt Lake Center
Fri 03:23:44 PM 39.4983 -111.4353 190° South 347 399 28,200 1,935 Climbing Salt Lake Center
Fri 03:24:46 PM 39.4050 -111.4600 192° South 344 396 30,200 1,839 Climbing Salt Lake Center
Fri 03:25:48 PM 39.3081 -111.4828 190° South 352 405 32,000 1,355 Climbing Salt Lake Center
Fri 03:26:50 PM 39.2000 -111.5097 191° South 360 414 33,000 968 Climbing Salt Lake Center
Fri 03:27:52 PM 39.0953 -111.5350 191° South 377 434 34,000 484 Climbing Salt Lake Center
Fri 03:28:54 PM 38.9875 -111.5597 190° South 391 450 34,000  Level Salt Lake Center
Fri 03:29:56 PM 38.8761 -111.5858 190° South 403 464 34,000  Level Salt Lake Center
Fri 03:30:58 PM 38.7656 -111.6114 190° South 404 465 34,000  Level Salt Lake Center
Fri 03:32:00 PM 38.6361 -111.6425 191° South 395 455 34,000  Level Salt Lake Center
Fri 03:33:02 PM 38.5317 -111.6667 190° South 384 442 34,000  Level Salt Lake Center
Fri 03:34:04 PM 38.4278 -111.6914 191° South 379 436 34,000  Level Salt Lake Center
Fri 03:35:06 PM 38.3228 -111.7150 190° South 382 440 34,000  Level Salt Lake Center
Fri 03:36:08 PM 38.2175 -111.7392 190° South 383 441 34,000  Level Salt Lake Center
Fri 03:37:10 PM 38.1125 -111.7622 190° South 383 441 34,000  Level Salt Lake Center
Fri 03:38:12 PM 38.0092 -111.7856 190° South 380 437 34,000 -48 Level Salt Lake Center
Fri 03:39:14 PM 37.8850 -111.8147 191° South 377 434 33,900 -484 Descending Salt Lake Center
Fri 03:40:16 PM 37.7792 -111.8397 191° South 382 440 33,000 -435 Descending Salt Lake Center
Fri 03:41:18 PM 37.6700 -111.8636 190° South 391 450 33,000  Level Salt Lake Center
Fri 03:42:20 PM 37.5606 -111.8886 190° South 396 456 33,000  Level Salt Lake Center
Fri 03:43:22 PM 37.4525 -111.9128 190° South 394 453 33,000  Level Salt Lake Center
Fri 03:44:24 PM 37.3453 -111.9383 191° South 391 450 33,000  Level Salt Lake Center
Fri 03:45:26 PM 37.2353 -111.9628 190° South 394 453 33,000  Level Los Angeles Center
Fri 03:46:28 PM 37.1050 -111.9919 190° South 395 455 33,000  Level Los Angeles Center
Fri 03:47:30 PM 36.9961 -112.0169 190° South 396 456 33,000  Level Los Angeles Center
Fri 03:48:32 PM 36.8875 -112.0419 190° South 397 457 33,000  Level Los Angeles Center
Fri 03:49:34 PM 36.7786 -112.0667 190° South 396 456 33,000  Level Los Angeles Center
Fri 03:50:36 PM 36.6694 -112.0906 190° South 397 457 33,000  Level Los Angeles Center
Fri 03:51:38 PM 36.5600 -112.1144 190° South 398 458 33,000  Level Los Angeles Center
Fri 03:52:41 PM 36.4286 -112.1444 190° South 398 458 33,000  Level Los Angeles Center
Fri 03:53:43 PM 36.3203 -112.1678 190° South 397 457 33,000  Level Los Angeles Center
Fri 03:54:45 PM 36.2117 -112.1919 190° South 395 455 33,000  Level Los Angeles Center
Fri 03:55:47 PM 36.0942 -112.2186 190° South 395 455 33,000 -242 Level Los Angeles Center
Fri 03:56:49 PM 35.9856 -112.2403 189° South 394 453 32,500 -823 Descending Los Angeles Center
Fri 03:57:51 PM 35.8731 -112.2464 183° South 405 466 31,300 -1,306 Descending Los Angeles Center
Fri 03:58:53 PM 35.7581 -112.2133 167° South 422 486 29,800 -1,113 Descending Los Angeles Center
Fri 03:59:55 PM 35.6433 -112.1794 167° South 423 487 29,000 -387 Descending Los Angeles Center
Fri 04:00:57 PM 35.5292 -112.1483 167° South 420 483 29,000  Level Los Angeles Center
Fri 04:02:00 PM 35.3906 -112.1125 168° South 423 487 29,000  Level Los Angeles Center
Fri 04:03:02 PM 35.2747 -112.0803 167° South 424 488 29,000  Level Los Angeles Center
Fri 04:03:53 PM 35.1814 -112.0567 168° South 424 488 29,000 -637 Level Albuquerque Center
Fri 04:04:55 PM 35.0667 -112.0417 174° South 416 479 27,800 -1,694 Descending Albuquerque Center
Fri 04:05:57 PM 34.9508 -112.0272 174° South 417 480 25,500 -2,244 Descending Albuquerque Center
Fri 04:06:58 PM 34.8397 -112.0108 173° South 408 470 23,200 -2,537 Descending Albuquerque Center
Fri 04:08:00 PM 34.7069 -111.9931 174° South 395 455 20,300 -2,516 Descending Albuquerque Center
Fri 04:09:02 PM 34.6028 -111.9792 174° South 381 438 18,000 -2,129 Descending Albuquerque Center
Fri 04:10:04 PM 34.5022 -111.9644 173° South 369 425 15,900 -2,129 Descending Albuquerque Center
Fri 04:11:06 PM 34.4067 -111.9517 174° South 351 404 13,600 -1,839 Descending Albuquerque Center
Fri 04:12:08 PM 34.3136 -111.9381 173° South 339 390 12,100 -1,258 Descending Albuquerque Center
Fri 04:13:10 PM 34.2267 -111.9258 173° South 322 371 11,000 -532 Descending Albuquerque Center
Fri 04:14:12 PM 34.1353 -111.9258 180° South 279 321 11,000  Level Albuquerque Center
Fri 04:15:14 PM 34.0592 -111.9308 183° South 277 319 11,000  Level Albuquerque Center
Fri 04:16:15 PM 33.9917 -111.8803 148° Southeast 295 339 11,000 -195 Level Albuquerque Center
Fri 04:17:17 PM 33.9314 -111.8214 141° Southeast 293 337 10,600 -774 Descending Albuquerque Center
Fri 04:18:19 PM 33.8586 -111.7494 141° Southeast 289 333 9,400 -1,113 Descending Albuquerque Center
Fri 04:19:21 PM 33.7967 -111.6892 141° Southeast 289 333 8,300 -968 Descending Albuquerque Center
Fri 04:20:23 PM 33.7469 -111.6383 140° Southeast 237 273 7,400 -629 Descending Albuquerque Center
Fri 04:21:25 PM 33.7003 -111.5908 140° Southeast 222 255 7,000 -194 Descending Albuquerque Center
Fri 04:22:27 PM 33.6517 -111.5433 141° Southeast 224 258 7,000  Level Albuquerque Center
Fri 04:23:28 PM 33.5964 -111.5081 152° Southeast 227 261 7,000  Level Albuquerque Center
Fri 04:24:30 PM 33.5258 -111.4869 166° South 221 254 7,000  Level Albuquerque Center
Fri 04:25:32 PM 33.4644 -111.4756 171° South 222 255 7,000 -97 Level Albuquerque Center
Fri 04:26:34 PM 33.4031 -111.4797 183° South 221 254 6,800 -484 Descending Albuquerque Center
Fri 04:27:36 PM 33.3419 -111.4906 188° South 225 259 6,000 -1,512 Descending Albuquerque Center
Fri 04:28:37 PM 33.2950 -111.5392 221° Southwest 225 259 3,700 -1,632 Descending Albuquerque Center
Fri 04:29:41 PM 33.2667 -111.6000 241° Southwest 192 221 2,600 -1,016 Descending Phoenix TRACON
Fri 04:30:41 PM 33.2833 -111.6333 301° West 150 173 1,600 -1,000 Descending Phoenix TRACON

Login

Don't have an account? Register now (free) for customized features, flight alerts, and more!